Time;durP1;ratioP1;P1;durP2;ratioP2;P2;SDS_P1;SDS_P2;PMS_P1;PMS_P2;Temp;Humidity;BMP_temperature;BMP_pressure;BME280_temperature;BME280_humidity;BME280_pressure;Samples;Min_cycle;Max_cycle;Signal;HPM_P1;HPM_P2
2023/01/24 00:01:26;;;;;;;59.90;19.50;;;;;;;;;;110177;1278;22170;-80
2023/01/24 00:08:29;;;;;;;80.20;22.30;;;;;;;;;;110204;1268;22206;-81
2023/01/24 00:15:39;;;;;;;78.10;21.50;;;;;;;;;;109943;1284;22178;-80
2023/01/24 00:18:09;;;;;;;79.20;22.20;;;;;;;;;;109949;1265;22277;-79
2023/01/24 00:20:38;;;;;;;66.90;21.90;;;;;;;;;;109908;1283;22164;-79
2023/01/24 00:23:20;;;;;;;;;;;;;;;;;;;;;
2023/01/24 00:25:50;;;;;;;75.10;22.80;;;;;;;;;;109951;1284;22156;-80
2023/01/24 00:28:21;;;;;;;90.20;25.10;;;;;;;;;;109890;1275;22168;-80
2023/01/24 00:30:51;;;;;;;85.80;22.70;;;;;;;;;;109872;1285;22165;-80
2023/01/24 00:33:18;;;;;;;82.90;22.40;;;;;;;;;;109896;1285;22610;-80
2023/01/24 00:35:57;;;;;;;70.70;20.60;;;;;;;;;;109808;1286;23045;-80
2023/01/24 00:38:24;;;;;;;90.70;23.50;;;;;;;;;;109848;1268;22444;-81
2023/01/24 00:40:59;;;;;;;74.60;21.50;;;;;;;;;;109910;1284;22150;-80
2023/01/24 00:43:29;;;;;;;76.00;22.10;;;;;;;;;;109898;1284;23154;-80
2023/01/24 00:45:56;;;;;;;79.20;22.60;;;;;;;;;;109953;1284;22170;-80
2023/01/24 00:48:23;;;;;;;75.30;20.30;;;;;;;;;;109914;1273;22139;-80
2023/01/24 00:55:32;;;;;;;82.10;21.90;;;;;;;;;;109955;1284;22856;-79
2023/01/24 01:05:25;;;;;;;;;;;;;;;;;;;;;
2023/01/24 01:08:10;;;;;;;59.00;20.60;;;;;;;;;;109594;1269;22173;-80
2023/01/24 01:11:03;;;;;;;50.00;16.60;;;;;;;;;;109573;1290;22210;-80
2023/01/24 01:13:36;;;;;;;58.20;18.30;;;;;;;;;;109576;1290;22492;-81
2023/01/24 01:16:10;;;;;;;56.30;18.30;;;;;;;;;;109217;1290;23013;-80
2023/01/24 01:18:39;;;;;;;71.60;22.10;;;;;;;;;;109662;1270;22201;-80
2023/01/24 01:21:11;;;;;;;66.70;21.50;;;;;;;;;;109618;1288;22178;-80
2023/01/24 01:23:38;;;;;;;72.50;21.90;;;;;;;;;;109726;1288;22221;-80
2023/01/24 01:26:06;;;;;;;69.10;21.80;;;;;;;;;;109587;1288;22943;-80
2023/01/24 01:28:45;;;;;;;66.80;20.60;;;;;;;;;;109763;1274;22959;-80
2023/01/24 01:31:32;;;;;;;;;;;;;;;;;;;;;
2023/01/24 01:34:02;;;;;;;55.80;19.20;;;;;;;;;;109734;1288;22148;-80
2023/01/24 01:40:28;;;;;;;61.00;19.40;;;;;;;;;;110099;1262;23038;-81
2023/01/24 01:43:04;;;;;;;68.30;21.80;;;;;;;;;;110004;1280;22675;-81
2023/01/24 01:45:38;;;;;;;77.20;21.60;;;;;;;;;;110056;1280;22950;-80
2023/01/24 01:48:56;;;;;;;62.80;21.00;;;;;;;;;;110098;1280;22368;-81
2023/01/24 01:51:47;;;;;;;66.60;19.90;;;;;;;;;;110383;1272;22994;-81
2023/01/24 01:54:49;;;;;;;;;;;;;;;;;;;;;
2023/01/24 02:01:48;;;;;;;63.60;20.80;;;;;;;;;;109784;1269;22246;-82
2023/01/24 02:04:15;;;;;;;61.90;21.10;;;;;;;;;;109752;1287;22961;-81
2023/01/24 02:07:14;;;;;;;;;;;;;;;;;;;;;
2023/01/24 02:10:02;;;;;;;59.70;19.90;;;;;;;;;;109759;1267;22933;-81
2023/01/24 02:12:42;;;;;;;53.90;19.00;;;;;;;;;;109717;1287;22088;-81
2023/01/24 02:19:00;;;;;;;;;;;;;;;;;;;;;
2023/01/24 02:33:28;;;;;;;190.30;39.40;;;;;;;;;;109464;1273;22184;-81
2023/01/24 02:36:05;;;;;;;136.40;31.10;;;;;;;;;;109455;1292;22161;-81
2023/01/24 02:38:50;;;;;;;134.30;32.30;;;;;;;;;;109479;1291;22188;-82
2023/01/24 02:41:35;;;;;;;105.50;28.20;;;;;;;;;;109248;1273;22978;-82
2023/01/24 02:44:05;;;;;;;92.10;27.10;;;;;;;;;;109277;1291;22188;-81
2023/01/24 02:46:40;;;;;;;93.70;24.00;;;;;;;;;;109273;1292;23010;-81
2023/01/24 02:49:16;;;;;;;77.30;23.70;;;;;;;;;;109448;1292;22203;-81
2023/01/24 02:54:31;;;;;;;59.10;22.30;;;;;;;;;;109311;1291;22154;-82
2023/01/24 03:00:07;;;;;;;54.10;19.50;;;;;;;;;;109719;1288;22110;-81
2023/01/24 03:02:35;;;;;;;51.50;18.80;;;;;;;;;;109750;1270;22769;-80
2023/01/24 03:05:02;;;;;;;54.70;19.70;;;;;;;;;;109831;1282;22160;-81
2023/01/24 03:07:41;;;;;;;50.50;18.90;;;;;;;;;;109997;1282;22130;-80
2023/01/24 03:10:11;;;;;;;57.20;20.00;;;;;;;;;;109995;1282;22126;-80
2023/01/24 03:41:24;;;;;;;48.10;18.10;;;;;;;;;;109338;1292;22087;-81
2023/01/24 03:43:53;;;;;;;64.80;20.10;;;;;;;;;;109667;1270;22172;-80
2023/01/24 03:46:21;;;;;;;54.80;20.60;;;;;;;;;;109233;1292;22194;-81
2023/01/24 03:48:54;;;;;;;53.80;19.80;;;;;;;;;;109385;1292;21778;-81
2023/01/24 03:55:21;;;;;;;;;;;;;;;;;;;;;
2023/01/24 04:01:49;;;;;;;69.40;22.30;;;;;;;;;;109939;1283;22208;-82
2023/01/24 04:07:33;;;;;;;68.70;21.30;;;;;;;;;;109976;1282;22188;-81
2023/01/24 04:10:05;;;;;;;68.60;22.90;;;;;;;;;;109984;1282;22117;-80
2023/01/24 04:12:38;;;;;;;69.50;23.70;;;;;;;;;;110002;1282;22047;-80
2023/01/24 04:15:06;;;;;;;62.60;22.80;;;;;;;;;;110237;1260;22189;-81
2023/01/24 04:17:34;;;;;;;71.70;25.10;;;;;;;;;;109990;1282;22114;-81
2023/01/24 04:20:02;;;;;;;63.10;20.90;;;;;;;;;;109984;1282;22784;-81
2023/01/24 04:22:31;;;;;;;78.60;23.00;;;;;;;;;;109981;1283;22131;-81
2023/01/24 04:25:01;;;;;;;64.00;21.60;;;;;;;;;;109938;1264;22135;-83
2023/01/24 04:27:33;;;;;;;62.30;22.50;;;;;;;;;;109944;1283;22134;-80
2023/01/24 04:30:09;;;;;;;71.00;24.10;;;;;;;;;;109986;1283;22310;-80
2023/01/24 04:32:39;;;;;;;75.00;23.20;;;;;;;;;;109891;1283;22140;-81
2023/01/24 04:35:23;;;;;;;66.30;23.00;;;;;;;;;;109889;1267;22210;-81
2023/01/24 04:38:44;;;;;;;67.10;21.70;;;;;;;;;;110003;1283;22203;-81
2023/01/24 04:41:37;;;;;;;78.20;23.90;;;;;;;;;;109956;1283;22127;-81
2023/01/24 04:44:05;;;;;;;67.50;24.70;;;;;;;;;;109957;1264;22582;-80
2023/01/24 04:46:34;;;;;;;61.10;21.30;;;;;;;;;;109930;1283;22147;-80
2023/01/24 04:49:04;;;;;;;74.20;25.60;;;;;;;;;;109935;1283;22846;-81
2023/01/24 04:51:41;;;;;;;74.20;25.50;;;;;;;;;;109916;1283;22844;-80
2023/01/24 04:54:11;;;;;;;123.80;34.30;;;;;;;;;;109931;1260;22153;-81
2023/01/24 04:56:43;;;;;;;125.90;35.00;;;;;;;;;;109861;1283;22107;-81
2023/01/24 04:59:11;;;;;;;97.10;29.10;;;;;;;;;;109990;1283;22152;-81
2023/01/24 05:02:01;;;;;;;103.30;33.80;;;;;;;;;;110011;1283;22135;-80
2023/01/24 05:04:43;;;;;;;79.90;29.40;;;;;;;;;;110027;1260;22867;-81
2023/01/24 05:07:24;;;;;;;78.80;27.20;;;;;;;;;;110024;1283;22032;-81
2023/01/24 05:10:00;;;;;;;87.90;30.70;;;;;;;;;;109976;1283;22097;-81
2023/01/24 05:12:29;;;;;;;118.40;29.30;;;;;;;;;;109923;1283;22122;-81
2023/01/24 05:15:02;;;;;;;73.60;27.00;;;;;;;;;;109953;1267;22143;-81
2023/01/24 05:17:31;;;;;;;72.60;24.80;;;;;;;;;;110007;1283;22767;-80
2023/01/24 05:20:01;;;;;;;63.70;22.40;;;;;;;;;;109946;1283;22140;-81
2023/01/24 05:30:38;;;;;;;117.00;28.50;;;;;;;;;;103857;1295;544811;-86
2023/01/24 05:33:20;;;;;;;76.30;25.60;;;;;;;;;;105790;1288;25365;-82
2023/01/24 05:36:31;;;;;;;72.10;23.40;;;;;;;;;;105940;1290;24255;-83
2023/01/24 05:40:12;;;;;;;82.00;27.00;;;;;;;;;;105947;1285;25297;-81
2023/01/24 05:42:50;;;;;;;65.00;22.70;;;;;;;;;;102051;1289;5388918;-85
2023/01/24 05:46:43;;;;;;;89.30;27.50;;;;;;;;;;106061;1285;21750;-84
2023/01/24 05:50:03;;;;;;;94.30;25.70;;;;;;;;;;106056;1271;22574;-82
2023/01/24 05:53:23;;;;;;;74.20;24.90;;;;;;;;;;106096;1288;22645;-81
2023/01/24 05:56:08;;;;;;;73.30;26.20;;;;;;;;;;106149;1282;24226;-83
2023/01/24 05:59:44;;;;;;;67.00;24.90;;;;;;;;;;106136;1283;22549;-81
2023/01/24 06:02:26;;;;;;;80.30;27.90;;;;;;;;;;105941;1277;25150;-83
2023/01/24 06:05:42;;;;;;;70.30;25.20;;;;;;;;;;105783;1295;25311;-85
2023/01/24 06:08:58;;;;;;;;;;;;;;;;;;;;;
2023/01/24 06:12:53;;;;;;;77.80;26.30;;;;;;;;;;105826;1277;22702;-83
2023/01/24 06:16:06;;;;;;;73.60;25.70;;;;;;;;;;105632;1290;22555;-83
2023/01/24 06:19:06;;;;;;;;;;;;;;;;;;;;;
2023/01/24 06:22:49;;;;;;;77.90;26.50;;;;;;;;;;105362;1295;25537;-83
2023/01/24 06:25:44;;;;;;;;;;;;;;;;;;;;;
2023/01/24 06:28:52;;;;;;;;;;;;;;;;;;;;;
2023/01/24 06:33:02;;;;;;;78.70;26.10;;;;;;;;;;104629;1287;24418;-88
2023/01/24 06:35:42;;;;;;;80.00;26.10;;;;;;;;;;107917;1304;22216;-81
2023/01/24 06:38:25;;;;;;;74.50;24.80;;;;;;;;;;108101;1301;22256;-81
2023/01/24 06:41:27;;;;;;;;;;;;;;;;;;;;;
2023/01/24 06:44:14;;;;;;;69.20;24.70;;;;;;;;;;108039;1283;22077;-81
2023/01/24 06:46:46;;;;;;;77.90;25.80;;;;;;;;;;108970;1293;22191;-81
2023/01/24 06:50:19;;;;;;;120.30;30.40;;;;;;;;;;109209;1293;22229;-80
2023/01/24 06:52:52;;;;;;;81.00;24.20;;;;;;;;;;109179;1270;22991;-80
2023/01/24 06:55:44;;;;;;;65.70;24.20;;;;;;;;;;109212;1293;22267;-80
2023/01/24 06:58:34;;;;;;;110.30;38.70;;;;;;;;;;109151;1293;22316;-81
2023/01/24 07:01:04;;;;;;;74.20;27.40;;;;;;;;;;109535;1291;22423;-81
2023/01/24 07:03:53;;;;;;;70.80;25.50;;;;;;;;;;109354;1270;22390;-80
2023/01/24 07:07:11;;;;;;;;;;;;;;;;;;;;;
2023/01/24 07:10:17;;;;;;;91.60;26.20;;;;;;;;;;109875;1286;22148;-80
2023/01/24 07:13:03;;;;;;;65.20;24.30;;;;;;;;;;109747;1263;22063;-80
2023/01/24 07:15:48;;;;;;;63.50;25.20;;;;;;;;;;109767;1286;22402;-81
2023/01/24 07:18:16;;;;;;;66.90;25.20;;;;;;;;;;109880;1286;21740;-80
2023/01/24 07:20:45;;;;;;;61.90;22.80;;;;;;;;;;109908;1279;22312;-81
2023/01/24 07:31:10;;;;;;;70.60;25.40;;;;;;;;;;110149;1278;22141;-80
2023/01/24 07:33:52;;;;;;;;;;;;;;;;;;;;;
2023/01/24 07:45:06;;;;;;;;;;;;;;;;;;;;;
2023/01/24 07:47:52;;;;;;;66.50;26.00;;;;;;;;;;109818;1285;22686;-81
2023/01/24 07:50:40;;;;;;;;;;;;;;;;;;;;;
2023/01/24 07:53:24;;;;;;;62.60;24.80;;;;;;;;;;109825;1285;22963;-81
2023/01/24 08:07:26;;;;;;;;;;;;;;;;;;;;;
2023/01/24 08:09:58;;;;;;;60.50;23.50;;;;;;;;;;109602;1289;22875;-81
2023/01/24 08:12:25;;;;;;;61.80;24.60;;;;;;;;;;109522;1290;22098;-81
2023/01/24 08:18:58;;;;;;;68.20;24.00;;;;;;;;;;109127;1295;22197;-81
2023/01/24 08:25:19;;;;;;;63.50;21.50;;;;;;;;;;108972;1272;22116;-81
2023/01/24 08:28:54;;;;;;;62.80;24.20;;;;;;;;;;108969;1292;22219;-80
2023/01/24 08:38:31;;;;;;;87.00;23.70;;;;;;;;;;109263;1277;22148;-80
2023/01/24 08:41:26;;;;;;;79.40;26.10;;;;;;;;;;108876;1296;22453;-82
2023/01/24 08:44:03;;;;;;;83.50;24.20;;;;;;;;;;108871;1296;22199;-81
2023/01/24 08:47:34;;;;;;;65.50;24.70;;;;;;;;;;108945;1279;22071;-81
2023/01/24 08:50:20;;;;;;;;;;;;;;;;;;;;;
2023/01/24 08:52:49;;;;;;;69.90;26.20;;;;;;;;;;109363;1292;22262;-81
2023/01/24 08:55:21;;;;;;;71.40;25.70;;;;;;;;;;109311;1288;22260;-81
2023/01/24 09:05:27;;;;;;;;;;;;;;;;;;;;;
2023/01/24 09:08:17;;;;;;;92.00;25.50;;;;;;;;;;108766;1281;22249;-81
2023/01/24 09:11:52;;;;;;;69.00;25.00;;;;;;;;;;108750;1292;22187;-81
2023/01/24 09:14:00;;;;;;;64.60;25.10;;;;;;;;;;109237;1292;22201;-81
2023/01/24 09:16:50;;;;;;;77.50;25.40;;;;;;;;;;109346;1292;22256;-81
2023/01/24 09:27:50;;;;;;;;;;;;;;;;;;;;;
2023/01/24 09:30:37;;;;;;;75.80;28.50;;;;;;;;;;108126;1285;22404;-80
2023/01/24 09:33:10;;;;;;;81.50;27.30;;;;;;;;;;107903;1304;22205;-81
2023/01/24 09:40:00;;;;;;;;;;;;;;;;;;;;;
2023/01/24 09:46:53;;;;;;;60.30;22.90;;;;;;;;;;108347;1302;22407;-80
2023/01/24 09:49:36;;;;;;;69.50;27.40;;;;;;;;;;108108;1284;22910;-80
2023/01/24 09:52:21;;;;;;;56.40;24.20;;;;;;;;;;108186;1298;23005;-81
2023/01/24 09:54:55;;;;;;;62.90;24.80;;;;;;;;;;108252;1302;21955;-80
2023/01/24 09:57:46;;;;;;;76.50;27.20;;;;;;;;;;108321;1301;22239;-81
2023/01/24 10:00:26;;;;;;;71.20;26.50;;;;;;;;;;108920;1276;23134;-81
2023/01/24 10:03:33;;;;;;;;;;;;;;;;;;;;;
2023/01/24 10:06:23;;;;;;;80.70;25.40;;;;;;;;;;108852;1292;22833;-81
2023/01/24 10:16:11;;;;;;;70.20;25.80;;;;;;;;;;103991;1293;544943;-85
2023/01/24 10:19:07;;;;;;;80.30;25.30;;;;;;;;;;106177;1287;22539;-82
2023/01/24 10:22:49;;;;;;;68.70;26.40;;;;;;;;;;106209;1287;22574;-82
2023/01/24 10:25:25;;;;;;;83.70;26.70;;;;;;;;;;106750;1262;22495;-81
2023/01/24 10:28:01;;;;;;;71.10;26.10;;;;;;;;;;102847;1278;5411484;-84
2023/01/24 10:30:55;;;;;;;70.10;26.90;;;;;;;;;;106956;1278;25284;-84
2023/01/24 10:34:30;;;;;;;70.80;27.30;;;;;;;;;;106906;1278;22540;-81
2023/01/24 10:37:07;;;;;;;;;;;;;;;;;;;;;
2023/01/24 10:40:00;;;;;;;72.50;25.80;;;;;;;;;;106877;1278;24259;-84
2023/01/24 10:42:50;;;;;;;84.00;26.70;;;;;;;;;;106915;1278;25601;-87
2023/01/24 10:45:45;;;;;;;75.20;26.90;;;;;;;;;;106841;1262;22536;-86
2023/01/24 10:49:07;;;;;;;77.00;27.90;;;;;;;;;;106781;1278;23164;-85
2023/01/24 10:51:55;;;;;;;66.60;25.60;;;;;;;;;;106825;1278;22540;-83
2023/01/24 10:54:27;;;;;;;71.40;26.50;;;;;;;;;;106535;1280;23893;-84
2023/01/24 10:57:33;;;;;;;;;;;;;;;;;;;;;
2023/01/24 11:00:45;;;;;;;77.20;25.50;;;;;;;;;;106783;1280;22527;-85
2023/01/24 11:03:41;;;;;;;;;;;;;;;;;;;;;
2023/01/24 11:06:50;;;;;;;208.70;60.00;;;;;;;;;;106647;1262;22624;-84
2023/01/24 11:09:29;;;;;;;108.00;36.20;;;;;;;;;;106730;1260;22568;-83
2023/01/24 11:12:15;;;;;;;108.00;36.50;;;;;;;;;;106567;1281;22533;-82
2023/01/24 11:15:08;;;;;;;;;;;;;;;;;;;;;
2023/01/24 11:18:07;;;;;;;81.20;31.00;;;;;;;;;;106892;1263;24382;-82
2023/01/24 11:20:47;;;;;;;;;;;;;;;;;;;;;
2023/01/24 11:24:10;;;;;;;110.60;36.70;;;;;;;;;;106892;1280;25362;-85
2023/01/24 11:26:35;;;;;;;80.40;28.20;;;;;;;;;;106711;1262;22540;-87
2023/01/24 11:29:14;;;;;;;101.60;32.10;;;;;;;;;;106710;1280;24228;-83
2023/01/24 11:32:04;;;;;;;79.00;28.40;;;;;;;;;;106766;1280;25596;-84
2023/01/24 11:35:20;;;;;;;72.70;27.40;;;;;;;;;;106816;1280;22543;-86
2023/01/24 11:38:30;;;;;;;77.20;28.00;;;;;;;;;;106799;1262;24349;-83
2023/01/24 11:41:28;;;;;;;75.10;29.40;;;;;;;;;;106782;1263;22563;-84
2023/01/24 11:45:06;;;;;;;92.60;33.30;;;;;;;;;;106737;1280;25586;-82
2023/01/24 11:48:38;;;;;;;;;;;;;;;;;;;;;
2023/01/24 11:51:37;;;;;;;75.60;28.10;;;;;;;;;;106855;1275;23164;-82
2023/01/24 11:54:09;;;;;;;79.80;28.50;;;;;;;;;;106846;1279;25239;-82
2023/01/24 12:00:28;;;;;;;106.50;35.60;;;;;;;;;;106828;1279;22539;-81
2023/01/24 12:03:46;;;;;;;;;;;;;;;;;;;;;
2023/01/24 12:06:35;;;;;;;78.10;28.60;;;;;;;;;;106912;1279;25360;-85
2023/01/24 12:09:35;;;;;;;76.70;27.60;;;;;;;;;;106842;1263;22652;-87
2023/01/24 12:12:35;;;;;;;71.80;27.30;;;;;;;;;;106837;1279;22760;-86
2023/01/24 12:16:30;;;;;;;77.40;30.10;;;;;;;;;;106910;1279;22532;-84
2023/01/24 12:18:55;;;;;;;90.00;33.70;;;;;;;;;;106932;1279;25311;-83
2023/01/24 12:22:08;;;;;;;97.20;32.00;;;;;;;;;;106855;1279;22535;-89
2023/01/24 12:24:48;;;;;;;81.30;30.80;;;;;;;;;;106873;1279;22542;-83
2023/01/24 12:27:26;;;;;;;83.70;31.90;;;;;;;;;;106929;1279;22587;-83
2023/01/24 12:33:46;;;;;;;77.30;29.10;;;;;;;;;;106894;1276;24196;-86
2023/01/24 12:36:56;;;;;;;87.30;31.10;;;;;;;;;;106965;1276;24195;-83
2023/01/24 12:40:11;;;;;;;101.90;33.60;;;;;;;;;;106967;1276;22756;-86
2023/01/24 12:46:56;;;;;;;89.50;30.70;;;;;;;;;;106966;1276;25271;-86
2023/01/24 12:50:07;;;;;;;96.40;35.00;;;;;;;;;;107007;1259;24204;-89
2023/01/24 12:53:49;;;;;;;;;;;;;;;;;;;;;
2023/01/24 12:56:31;;;;;;;93.00;33.70;;;;;;;;;;107050;1276;23726;-88
2023/01/24 12:59:15;;;;;;;105.60;36.90;;;;;;;;;;107010;1260;24347;-85
2023/01/24 13:02:08;;;;;;;100.40;36.20;;;;;;;;;;107086;1269;22537;-85
2023/01/24 13:05:28;;;;;;;95.70;33.80;;;;;;;;;;107141;1269;22537;-85
2023/01/24 13:08:48;;;;;;;;;;;;;;;;;;;;;
2023/01/24 13:12:24;;;;;;;96.80;36.60;;;;;;;;;;106656;1273;22655;-87
2023/01/24 13:19:28;;;;;;;94.90;35.40;;;;;;;;;;106920;1280;22536;-87
2023/01/24 13:23:18;;;;;;;105.40;38.20;;;;;;;;;;106499;1271;23474;-90
2023/01/24 13:26:01;;;;;;;82.30;30.00;;;;;;;;;;106564;1276;24303;-89
2023/01/24 13:29:42;;;;;;;;;;;;;;;;;;;;;
2023/01/24 13:32:22;;;;;;;123.00;41.70;;;;;;;;;;105974;1281;24283;-86
2023/01/24 13:35:14;;;;;;;120.70;42.00;;;;;;;;;;106078;1289;22560;-84
2023/01/24 13:37:53;;;;;;;104.60;38.50;;;;;;;;;;106045;1289;22701;-86
2023/01/24 13:40:52;;;;;;;86.20;32.00;;;;;;;;;;106142;1286;22572;-84
2023/01/24 13:44:14;;;;;;;76.20;27.10;;;;;;;;;;106206;1287;24255;-84
2023/01/24 13:47:32;;;;;;;;;;;;;;;;;;;;;
2023/01/24 13:50:38;;;;;;;73.70;27.00;;;;;;;;;;105959;1274;26812;-85
2023/01/24 13:54:24;;;;;;;72.20;27.10;;;;;;;;;;105930;1290;24288;-87
2023/01/24 13:57:54;;;;;;;;;;;;;;;;;;;;;
2023/01/24 14:01:10;;;;;;;110.80;35.10;;;;;;;;;;105466;1275;22566;-85
2023/01/24 14:15:09;;;;;;;167.20;53.00;;;;;;;;;;104550;1292;547970;-82
2023/01/24 14:18:06;;;;;;;300.10;71.30;;;;;;;;;;106953;1264;22614;-83
2023/01/24 14:21:17;;;;;;;;;;;;;;;;;;;;;
2023/01/24 14:24:09;;;;;;;;;;;;;;;;;;;;;
2023/01/24 14:27:15;;;;;;;;;;;;;;;;;;;;;
2023/01/24 14:30:13;;;;;;;91.80;31.50;;;;;;;;;;102645;1286;22655;-86
2023/01/24 14:33:57;;;;;;;83.50;31.20;;;;;;;;;;106340;1286;25360;-86
2023/01/24 14:36:58;;;;;;;;;;;;;;;;;;;;;
2023/01/24 14:40:03;;;;;;;169.30;59.50;;;;;;;;;;106417;1286;22558;-89
2023/01/24 14:43:29;;;;;;;;;;;;;;;;;;;;;
2023/01/24 14:47:03;;;;;;;151.20;53.40;;;;;;;;;;106585;1268;25554;-85
2023/01/24 14:49:26;;;;;;;163.40;58.20;;;;;;;;;;105939;1292;23272;-86
2023/01/24 14:53:19;;;;;;;;;;;;;;;;;;;;;
2023/01/24 14:59:27;;;;;;;158.60;54.60;;;;;;;;;;107432;1308;22886;-84
2023/01/24 15:02:18;;;;;;;157.40;52.30;;;;;;;;;;107526;1308;22204;-83
2023/01/24 15:05:12;;;;;;;129.50;42.70;;;;;;;;;;107556;1293;22113;-83
2023/01/24 15:07:57;;;;;;;159.40;55.50;;;;;;;;;;107459;1307;22254;-84
2023/01/24 15:10:32;;;;;;;94.90;36.00;;;;;;;;;;107461;1307;22448;-84
2023/01/24 15:13:19;;;;;;;;;;;;;;;;;;;;;
2023/01/24 15:15:56;;;;;;;80.50;29.30;;;;;;;;;;107652;1292;22321;-84
2023/01/24 15:18:40;;;;;;;89.40;33.40;;;;;;;;;;108043;1302;22422;-86
2023/01/24 15:21:20;;;;;;;77.50;32.30;;;;;;;;;;108184;1303;22974;-84
2023/01/24 15:24:28;;;;;;;78.40;29.50;;;;;;;;;;108081;1304;22968;-84
2023/01/24 15:35:41;;;;;;;60.20;22.20;;;;;;;;;;108378;1299;22987;-83
2023/01/24 15:38:52;;;;;;;;;;;;;;;;;;;;;
2023/01/24 15:44:54;;;;;;;63.30;24.90;;;;;;;;;;110394;1275;22145;-83
2023/01/24 15:58:46;;;;;;;74.30;30.20;;;;;;;;;;109696;1267;22210;-85
2023/01/24 16:20:39;;;;;;;65.70;26.10;;;;;;;;;;110391;1262;22593;-83
2023/01/24 16:23:13;;;;;;;72.00;30.00;;;;;;;;;;110288;1277;22151;-84
2023/01/24 16:25:43;;;;;;;76.70;30.80;;;;;;;;;;110215;1277;22121;-84
2023/01/24 16:28:45;;;;;;;;;;;;;;;;;;;;;
2023/01/24 16:39:40;;;;;;;;;;;;;;;;;;;;;
2023/01/24 16:47:09;;;;;;;67.40;28.10;;;;;;;;;;109903;1285;23407;-86
2023/01/24 16:58:03;;;;;;;75.40;30.40;;;;;;;;;;110303;1278;22904;-84
2023/01/24 17:00:47;;;;;;;70.80;27.40;;;;;;;;;;110469;1255;22315;-84
2023/01/24 17:03:49;;;;;;;78.40;29.60;;;;;;;;;;110229;1278;22418;-84
2023/01/24 17:06:54;;;;;;;71.50;28.60;;;;;;;;;;110360;1278;22131;-84
2023/01/24 17:10:16;;;;;;;;;;;;;;;;;;;;;
2023/01/24 17:20:09;;;;;;;;;;;;;;;;;;;;;
2023/01/24 17:23:31;;;;;;;;;;;;;;;;;;;;;
2023/01/24 17:30:47;;;;;;;99.10;36.90;;;;;;;;;;109520;1268;22981;-84
2023/01/24 17:41:04;;;;;;;116.30;41.30;;;;;;;;;;108267;1284;22159;-84
2023/01/24 18:15:23;;;;;;;;;;;;;;;;;;;;;
2023/01/24 18:18:04;;;;;;;105.10;39.20;;;;;;;;;;109941;1285;22212;-84
2023/01/24 18:20:42;;;;;;;87.50;33.10;;;;;;;;;;109916;1285;22204;-84
2023/01/24 18:24:07;;;;;;;97.40;36.70;;;;;;;;;;109845;1267;22933;-84
2023/01/24 18:26:44;;;;;;;112.10;39.90;;;;;;;;;;109870;1285;22266;-85
2023/01/24 18:29:57;;;;;;;;;;;;;;;;;;;;;
2023/01/24 18:43:40;;;;;;;;;;;;;;;;;;;;;
2023/01/24 18:47:11;;;;;;;149.30;51.10;;;;;;;;;;108903;1279;22222;-87
2023/01/24 18:49:50;;;;;;;210.00;72.00;;;;;;;;;;109130;1290;22977;-86
2023/01/24 18:52:37;;;;;;;178.20;61.30;;;;;;;;;;109640;1289;22942;-85
2023/01/24 19:02:52;;;;;;;119.50;42.80;;;;;;;;;;109273;1293;23296;-85
2023/01/24 19:12:56;;;;;;;;;;;;;;;;;;;;;
2023/01/24 19:15:33;;;;;;;86.10;31.80;;;;;;;;;;108415;1272;22244;-85
2023/01/24 19:18:10;;;;;;;100.60;36.50;;;;;;;;;;109089;1294;22172;-85
2023/01/24 19:20:48;;;;;;;77.40;30.50;;;;;;;;;;109091;1294;22183;-86
2023/01/24 19:23:20;;;;;;;84.50;32.20;;;;;;;;;;109178;1293;22200;-87
2023/01/24 19:33:17;;;;;;;81.80;31.00;;;;;;;;;;108695;1298;22529;-86
2023/01/24 19:36:21;;;;;;;84.20;32.80;;;;;;;;;;108982;1270;22296;-85
2023/01/24 19:44:21;;;;;;;;;;;;;;;;;;;;;
2023/01/24 19:47:08;;;;;;;79.90;32.40;;;;;;;;;;109792;1269;22182;-87
2023/01/24 20:04:26;;;;;;;80.90;27.10;;;;;;;;;;108577;1299;22222;-86
2023/01/24 20:06:53;;;;;;;71.80;27.20;;;;;;;;;;108592;1280;22189;-87
2023/01/24 20:29:07;;;;;;;;;;;;;;;;;;;;;
2023/01/24 20:36:16;;;;;;;169.60;49.20;;;;;;;;;;109079;1292;22213;-86
2023/01/24 20:40:05;;;;;;;;;;;;;;;;;;;;;
2023/01/24 20:46:45;;;;;;;98.80;33.80;;;;;;;;;;107982;1305;22171;-86
2023/01/24 20:50:06;;;;;;;;;;;;;;;;;;;;;
2023/01/24 21:19:41;;;;;;;143.20;51.70;;;;;;;;;;109549;1290;22945;-85
2023/01/24 21:22:32;;;;;;;98.10;35.40;;;;;;;;;;109401;1273;22214;-85
2023/01/24 21:33:40;;;;;;;;;;;;;;;;;;;;;
2023/01/24 21:38:02;;;;;;;;;;;;;;;;;;;;;
2023/01/24 21:44:56;;;;;;;67.40;25.10;;;;;;;;;;110008;1265;22260;-84
2023/01/24 21:47:28;;;;;;;65.60;26.20;;;;;;;;;;109985;1283;22231;-85
2023/01/24 22:02:12;;;;;;;69.60;26.20;;;;;;;;;;109724;1281;23447;-85
2023/01/24 22:05:09;;;;;;;71.70;26.80;;;;;;;;;;110135;1276;22182;-85
2023/01/24 22:07:38;;;;;;;73.80;26.30;;;;;;;;;;110039;1282;22124;-86
2023/01/24 22:14:50;;;;;;;64.50;25.10;;;;;;;;;;109898;1279;22150;-84
2023/01/24 22:28:46;;;;;;;70.40;27.80;;;;;;;;;;103938;1295;545410;-85
2023/01/24 22:31:30;;;;;;;64.60;26.40;;;;;;;;;;106518;1286;26546;-87
2023/01/24 22:34:15;;;;;;;63.80;25.90;;;;;;;;;;106554;1286;22529;-86
2023/01/24 22:37:47;;;;;;;70.70;27.20;;;;;;;;;;106579;1286;22566;-85
2023/01/24 22:40:37;;;;;;;68.00;26.40;;;;;;;;;;106627;1266;25404;-84
2023/01/24 22:43:29;;;;;;;65.20;25.00;;;;;;;;;;102663;1284;5420178;-86
2023/01/24 22:46:32;;;;;;;64.10;24.80;;;;;;;;;;107327;1275;25337;-86
2023/01/24 22:53:16;;;;;;;69.20;26.30;;;;;;;;;;106805;1281;25421;-84
2023/01/24 22:55:50;;;;;;;84.10;27.00;;;;;;;;;;106531;1281;24307;-87
2023/01/24 22:59:21;;;;;;;;;;;;;;;;;;;;;
2023/01/24 23:02:56;;;;;;;64.60;25.10;;;;;;;;;;106439;1270;24439;-84
2023/01/24 23:05:43;;;;;;;65.60;24.60;;;;;;;;;;106343;1285;23617;-85
2023/01/24 23:08:27;;;;;;;65.60;25.40;;;;;;;;;;106448;1285;24253;-89
2023/01/24 23:11:33;;;;;;;;;;;;;;;;;;;;;
2023/01/24 23:17:33;;;;;;;62.20;24.80;;;;;;;;;;106415;1285;23003;-87
2023/01/24 23:24:42;;;;;;;67.20;24.90;;;;;;;;;;106390;1268;22530;-88
2023/01/24 23:27:19;;;;;;;57.50;22.50;;;;;;;;;;106452;1284;25454;-85
2023/01/24 23:30:51;;;;;;;;;;;;;;;;;;;;;
2023/01/24 23:33:46;;;;;;;63.50;23.80;;;;;;;;;;106661;1263;22561;-84
2023/01/24 23:37:14;;;;;;;60.80;22.70;;;;;;;;;;106437;1285;24711;-88
2023/01/24 23:40:05;;;;;;;60.60;21.80;;;;;;;;;;106469;1285;22554;-89
2023/01/24 23:43:25;;;;;;;59.30;22.30;;;;;;;;;;106355;1271;22627;-89
2023/01/24 23:46:53;;;;;;;66.60;25.00;;;;;;;;;;106459;1284;24374;-85
2023/01/24 23:49:57;;;;;;;66.70;23.60;;;;;;;;;;106009;1291;22549;-85
2023/01/24 23:52:51;;;;;;;;;;;;;;;;;;;;;
2023/01/24 23:56:27;;;;;;;66.60;23.40;;;;;;;;;;105715;1296;22689;-89
2023/01/24 23:59:15;;;;;;;;;;;;;;;;;;;;;
